Time;durP1;ratioP1;P1;durP2;ratioP2;P2;SDS_P1;SDS_P2;PMS_P1;PMS_P2;Temp;Humidity;BMP_temperature;BMP_pressure;BME280_temperature;BME280_humidity;BME280_pressure;Samples;Min_cycle;Max_cycle;Signal;HPM_P1;HPM_P2
2022/05/01 00:00:32;;;;;;;13.80;11.77;;;;;;;;;;4998167;28;93372;-75
2022/05/01 00:02:58;;;;;;;14.48;12.88;;;;;;;;;;4998355;28;93501;-74
2022/05/01 00:05:25;;;;;;;14.48;12.32;;;;;;;;;;4997953;28;92198;-74
2022/05/01 00:07:51;;;;;;;16.73;12.60;;;;;;;;;;4998023;28;93408;-74
2022/05/01 00:10:17;;;;;;;20.17;13.52;;;;;;;;;;4995676;28;96450;-74
2022/05/01 00:12:44;;;;;;;13.75;12.02;;;;;;;;;;5001003;28;92393;-74
2022/05/01 00:15:10;;;;;;;17.38;13.15;;;;;;;;;;4997723;28;93649;-74
2022/05/01 00:17:37;;;;;;;14.07;12.63;;;;;;;;;;4979957;28;92370;-74
2022/05/01 00:20:04;;;;;;;15.07;13.48;;;;;;;;;;4980340;28;93008;-74
2022/05/01 00:22:31;;;;;;;19.17;13.93;;;;;;;;;;4997563;28;93937;-74
2022/05/01 00:24:57;;;;;;;15.05;13.30;;;;;;;;;;4997252;28;92319;-73
2022/05/01 00:27:24;;;;;;;20.73;13.90;;;;;;;;;;4997652;28;93536;-74
2022/05/01 00:29:50;;;;;;;15.60;13.88;;;;;;;;;;4997479;28;93333;-73
2022/05/01 00:32:17;;;;;;;16.90;12.73;;;;;;;;;;4997412;28;93003;-74
2022/05/01 00:37:28;;;;;;;14.75;12.93;;;;;;;;;;5001057;28;92403;-74
2022/05/01 00:39:55;;;;;;;16.75;13.65;;;;;;;;;;4997558;28;93794;-73
2022/05/01 00:42:22;;;;;;;15.15;12.95;;;;;;;;;;4997194;28;93742;-73
2022/05/01 00:44:49;;;;;;;18.15;13.68;;;;;;;;;;4997318;28;92416;-74
2022/05/01 00:47:16;;;;;;;16.25;13.43;;;;;;;;;;4997406;28;93907;-74
2022/05/01 00:49:42;;;;;;;15.50;13.23;;;;;;;;;;4996912;28;93495;-74
2022/05/01 00:52:10;;;;;;;15.80;13.73;;;;;;;;;;4997294;28;91617;-73
2022/05/01 00:54:37;;;;;;;17.52;13.68;;;;;;;;;;5000099;28;92364;-74
2022/05/01 00:57:05;;;;;;;15.15;13.15;;;;;;;;;;4997370;28;92358;-74
2022/05/01 00:59:32;;;;;;;15.77;12.93;;;;;;;;;;4995618;28;95851;-74
2022/05/01 01:01:59;;;;;;;15.55;13.00;;;;;;;;;;4996953;28;93860;-74
2022/05/01 01:04:25;;;;;;;17.40;13.25;;;;;;;;;;4996755;28;92386;-75
2022/05/01 01:06:52;;;;;;;16.27;12.73;;;;;;;;;;4997029;28;92725;-74
2022/05/01 01:09:18;;;;;;;15.82;12.45;;;;;;;;;;4979580;28;93188;-74
2022/05/01 01:11:45;;;;;;;16.27;12.30;;;;;;;;;;4996912;28;92272;-74
2022/05/01 01:14:11;;;;;;;15.48;11.95;;;;;;;;;;4996614;28;94424;-74
2022/05/01 01:16:39;;;;;;;14.73;11.70;;;;;;;;;;4981350;28;95644;-74
2022/05/01 01:19:07;;;;;;;15.75;11.35;;;;;;;;;;5015515;28;92454;-74
2022/05/01 01:21:33;;;;;;;13.05;11.65;;;;;;;;;;5016742;28;94008;-74
2022/05/01 01:24:01;;;;;;;15.35;12.73;;;;;;;;;;5015191;28;95981;-74
2022/05/01 01:26:28;;;;;;;14.50;12.20;;;;;;;;;;5016722;28;95732;-74
2022/05/01 01:28:55;;;;;;;15.30;12.63;;;;;;;;;;5016557;28;92692;-74
2022/05/01 01:31:41;;;;;;;15.05;12.13;;;;;;;;;;5016440;28;92181;-74
2022/05/01 01:34:12;;;;;;;17.58;13.07;;;;;;;;;;5016509;28;94309;-74
2022/05/01 01:36:39;;;;;;;16.83;13.75;;;;;;;;;;5016092;28;94080;-74
2022/05/01 01:39:07;;;;;;;16.00;12.85;;;;;;;;;;5019541;28;92275;-74
2022/05/01 01:41:35;;;;;;;18.90;13.40;;;;;;;;;;5016864;28;92839;-74
2022/05/01 01:44:01;;;;;;;16.05;12.60;;;;;;;;;;4998335;28;92367;-75
2022/05/01 01:46:28;;;;;;;15.88;12.25;;;;;;;;;;5015775;28;94798;-74
2022/05/01 01:48:54;;;;;;;16.17;12.48;;;;;;;;;;5014570;28;96466;-74
2022/05/01 01:51:21;;;;;;;16.67;12.50;;;;;;;;;;5016354;28;92970;-74
2022/05/01 01:53:47;;;;;;;16.33;12.75;;;;;;;;;;5016517;28;93840;-74
2022/05/01 01:56:13;;;;;;;14.90;12.88;;;;;;;;;;5016136;28;93727;-74
2022/05/01 01:58:40;;;;;;;17.58;13.52;;;;;;;;;;5015703;28;92398;-74
2022/05/01 02:01:08;;;;;;;18.05;13.10;;;;;;;;;;5001349;28;95357;-73
2022/05/01 02:03:34;;;;;;;17.45;13.23;;;;;;;;;;5016135;28;92229;-74
2022/05/01 02:06:03;;;;;;;18.83;13.27;;;;;;;;;;5016800;28;92695;-74
2022/05/01 02:08:30;;;;;;;16.63;12.70;;;;;;;;;;5015881;28;93620;-74
2022/05/01 02:10:57;;;;;;;17.75;13.45;;;;;;;;;;5016249;28;92461;-74
2022/05/01 02:13:23;;;;;;;15.88;14.07;;;;;;;;;;5014127;28;94684;-74
2022/05/01 02:15:49;;;;;;;20.25;14.60;;;;;;;;;;5015881;28;93461;-73
2022/05/01 02:18:16;;;;;;;21.15;12.00;;;;;;;;;;5016146;28;92272;-73
2022/05/01 02:23:29;;;;;;;18.30;13.70;;;;;;;;;;5018846;28;93523;-73
2022/05/01 02:25:56;;;;;;;15.00;13.02;;;;;;;;;;5015434;28;93448;-74
2022/05/01 02:28:25;;;;;;;16.88;13.40;;;;;;;;;;5015858;28;93819;-73
2022/05/01 02:30:51;;;;;;;17.77;13.80;;;;;;;;;;5019466;28;91448;-74
2022/05/01 02:33:20;;;;;;;18.73;13.85;;;;;;;;;;5019407;28;92357;-73
2022/05/01 02:35:46;;;;;;;18.98;13.27;;;;;;;;;;5019336;28;93558;-73
2022/05/01 02:38:13;;;;;;;18.50;14.02;;;;;;;;;;5017403;28;94857;-74
2022/05/01 02:40:39;;;;;;;20.67;14.15;;;;;;;;;;5018841;28;96245;-73
2022/05/01 02:43:06;;;;;;;19.77;13.70;;;;;;;;;;5019181;28;93948;-73
2022/05/01 02:45:32;;;;;;;19.08;14.10;;;;;;;;;;5023229;28;92129;-73
2022/05/01 02:47:59;;;;;;;16.58;13.18;;;;;;;;;;5022173;28;93420;-74
2022/05/01 02:50:25;;;;;;;18.95;12.85;;;;;;;;;;5020577;28;93223;-74
2022/05/01 02:52:52;;;;;;;16.70;12.75;;;;;;;;;;5019190;28;93445;-73
2022/05/01 02:55:19;;;;;;;18.80;13.23;;;;;;;;;;5019391;28;92942;-73
2022/05/01 02:57:45;;;;;;;17.13;13.50;;;;;;;;;;5018780;28;92157;-73
2022/05/01 03:00:16;;;;;;;15.40;12.65;;;;;;;;;;5018910;28;93556;-73
2022/05/01 03:02:46;;;;;;;17.50;12.87;;;;;;;;;;5016929;28;96220;-73
2022/05/01 03:05:13;;;;;;;17.42;12.98;;;;;;;;;;5022125;28;92211;-73
2022/05/01 03:07:40;;;;;;;17.48;13.43;;;;;;;;;;5018404;28;93969;-73
2022/05/01 03:10:07;;;;;;;16.33;13.10;;;;;;;;;;5018385;28;92492;-73
2022/05/01 03:12:33;;;;;;;18.15;13.50;;;;;;;;;;5018716;28;93364;-73
2022/05/01 03:15:00;;;;;;;17.25;13.20;;;;;;;;;;5018487;28;93509;-73
2022/05/01 03:22:10;;;;;;;14.43;12.23;;;;;;;;;;5018815;28;92381;-73
2022/05/01 03:22:57;;;;;;;17.10;12.63;;;;;;;;;;5018144;28;93837;-73
2022/05/01 03:25:25;;;;;;;18.17;12.95;;;;;;;;;;5018551;28;92298;-73
2022/05/01 03:27:52;;;;;;;15.10;12.35;;;;;;;;;;5020015;28;95483;-73
2022/05/01 03:30:20;;;;;;;15.98;12.85;;;;;;;;;;5018657;28;92161;-73
2022/05/01 03:32:46;;;;;;;15.40;12.55;;;;;;;;;;5018344;28;92998;-73
2022/05/01 03:35:14;;;;;;;16.35;12.45;;;;;;;;;;5018398;28;93533;-73
2022/05/01 03:37:42;;;;;;;18.75;12.68;;;;;;;;;;5017957;28;92380;-73
2022/05/01 03:40:12;;;;;;;13.25;11.57;;;;;;;;;;5017560;28;94218;-73
2022/05/01 03:42:38;;;;;;;16.10;12.50;;;;;;;;;;5017913;28;93646;-73
2022/05/01 03:45:05;;;;;;;20.63;13.38;;;;;;;;;;5018095;28;91552;-73
2022/05/01 03:47:33;;;;;;;13.65;11.07;;;;;;;;;;5017791;28;94804;-72
2022/05/01 03:49:59;;;;;;;16.20;13.18;;;;;;;;;;5020729;28;94585;-73
2022/05/01 03:52:26;;;;;;;18.95;13.15;;;;;;;;;;5016728;28;94681;-72
2022/05/01 03:54:52;;;;;;;13.77;11.85;;;;;;;;;;5018000;28;92320;-73
2022/05/01 03:57:18;;;;;;;16.88;12.40;;;;;;;;;;5018004;28;92348;-73
2022/05/01 03:59:46;;;;;;;17.02;11.90;;;;;;;;;;5017619;28;92898;-72
2022/05/01 04:02:16;;;;;;;16.08;12.77;;;;;;;;;;5017743;28;93644;-73
2022/05/01 04:04:46;;;;;;;15.18;12.40;;;;;;;;;;5017800;28;92273;-74
2022/05/01 04:07:12;;;;;;;18.35;12.82;;;;;;;;;;5017584;28;94256;-73
2022/05/01 04:09:39;;;;;;;17.58;13.10;;;;;;;;;;5017851;28;92967;-73
2022/05/01 04:12:06;;;;;;;15.20;13.30;;;;;;;;;;5020421;28;92254;-74
2022/05/01 04:14:32;;;;;;;17.20;13.30;;;;;;;;;;5016984;28;93613;-74
2022/05/01 04:17:01;;;;;;;15.90;13.43;;;;;;;;;;4998040;28;94962;-74
2022/05/01 04:19:28;;;;;;;16.20;13.50;;;;;;;;;;5017650;28;95264;-74
2022/05/01 04:21:55;;;;;;;15.77;12.95;;;;;;;;;;5017440;28;93686;-73
2022/05/01 04:24:22;;;;;;;19.17;13.90;;;;;;;;;;5017192;28;92323;-73
2022/05/01 04:26:48;;;;;;;19.35;14.32;;;;;;;;;;5017078;28;93625;-74
2022/05/01 04:32:00;;;;;;;18.95;13.27;;;;;;;;;;5017329;28;92332;-74
2022/05/01 04:34:27;;;;;;;18.30;13.52;;;;;;;;;;5018177;28;93191;-74
2022/05/01 04:36:53;;;;;;;20.38;14.05;;;;;;;;;;5017234;28;92404;-74
2022/05/01 04:39:21;;;;;;;20.60;13.05;;;;;;;;;;5017064;28;93650;-73
2022/05/01 04:41:47;;;;;;;20.35;13.45;;;;;;;;;;5015445;28;96060;-74
2022/05/01 04:44:14;;;;;;;19.55;13.77;;;;;;;;;;5017535;28;92643;-74
2022/05/01 04:46:40;;;;;;;18.60;13.90;;;;;;;;;;5017209;28;92499;-73
2022/05/01 04:49:07;;;;;;;18.42;13.48;;;;;;;;;;5017282;28;93584;-73
2022/05/01 04:51:33;;;;;;;17.65;13.77;;;;;;;;;;5016830;28;92365;-73
2022/05/01 04:53:59;;;;;;;19.58;14.38;;;;;;;;;;5019508;28;93539;-73
2022/05/01 04:59:11;;;;;;;17.98;13.93;;;;;;;;;;5017157;28;92730;-73
2022/05/01 05:01:37;;;;;;;16.58;12.75;;;;;;;;;;5017096;28;93471;-73
2022/05/01 05:04:04;;;;;;;14.23;12.68;;;;;;;;;;5015334;28;93387;-72
2022/05/01 05:06:30;;;;;;;17.58;13.20;;;;;;;;;;5013481;28;95404;-72
2022/05/01 05:11:42;;;;;;;22.75;13.93;;;;;;;;;;5015908;28;92630;-72
2022/05/01 05:14:08;;;;;;;16.67;12.77;;;;;;;;;;5016861;28;93533;-73
2022/05/01 05:16:35;;;;;;;14.93;12.95;;;;;;;;;;5019610;28;93581;-73
2022/05/01 05:19:02;;;;;;;14.88;12.95;;;;;;;;;;5016836;28;93704;-72
2022/05/01 05:21:28;;;;;;;17.00;13.98;;;;;;;;;;5016744;28;93580;-72
2022/05/01 05:23:55;;;;;;;17.42;13.65;;;;;;;;;;5017171;28;91677;-72
2022/05/01 05:26:21;;;;;;;15.77;13.52;;;;;;;;;;5016745;28;92273;-72
2022/05/01 05:28:48;;;;;;;18.00;14.70;;;;;;;;;;5016709;28;93378;-72
2022/05/01 05:31:14;;;;;;;17.02;13.75;;;;;;;;;;5014685;28;94692;-73
2022/05/01 05:33:41;;;;;;;16.50;13.85;;;;;;;;;;5016475;28;95753;-73
2022/05/01 05:36:07;;;;;;;14.55;13.10;;;;;;;;;;5016354;28;93654;-72
2022/05/01 05:38:33;;;;;;;16.55;14.82;;;;;;;;;;5018460;28;92355;-72
2022/05/01 05:41:00;;;;;;;15.93;13.25;;;;;;;;;;5015797;28;93665;-73
2022/05/01 05:43:26;;;;;;;15.38;13.73;;;;;;;;;;5016262;28;92303;-73
2022/05/01 05:45:53;;;;;;;15.02;12.75;;;;;;;;;;4998896;28;93547;-73
2022/05/01 05:48:19;;;;;;;14.60;13.10;;;;;;;;;;5016670;28;92767;-74
2022/05/01 05:50:45;;;;;;;14.65;13.18;;;;;;;;;;5016144;28;92374;-73
2022/05/01 05:53:12;;;;;;;14.77;13.25;;;;;;;;;;5016526;28;93452;-72
2022/05/01 05:55:38;;;;;;;16.77;13.38;;;;;;;;;;4962696;28;95920;-73
2022/05/01 05:58:04;;;;;;;15.50;13.48;;;;;;;;;;5016171;28;92200;-73
2022/05/01 06:00:31;;;;;;;14.30;12.85;;;;;;;;;;4985260;28;93712;-73
2022/05/01 06:02:57;;;;;;;14.30;12.82;;;;;;;;;;5014565;28;92476;-73
2022/05/01 06:05:24;;;;;;;16.08;13.05;;;;;;;;;;5019432;28;93320;-74
2022/05/01 06:07:50;;;;;;;14.20;12.80;;;;;;;;;;5019570;28;93893;-73
2022/05/01 06:10:16;;;;;;;14.60;13.20;;;;;;;;;;5019943;28;92348;-73
2022/05/01 06:12:43;;;;;;;13.23;12.02;;;;;;;;;;5020192;28;93374;-73
2022/05/01 06:15:15;;;;;;;13.43;11.95;;;;;;;;;;5019526;28;93633;-73
2022/05/01 06:17:43;;;;;;;15.23;12.60;;;;;;;;;;5019097;28;93246;-72
2022/05/01 06:20:09;;;;;;;14.23;12.75;;;;;;;;;;5018271;28;95066;-73
2022/05/01 06:22:36;;;;;;;13.93;12.52;;;;;;;;;;5005048;28;93673;-73
2022/05/01 06:25:02;;;;;;;13.48;12.25;;;;;;;;;;5019173;28;94760;-73
2022/05/01 06:27:29;;;;;;;14.00;12.70;;;;;;;;;;5019257;28;93613;-72
2022/05/01 06:29:55;;;;;;;14.10;12.60;;;;;;;;;;5019483;28;92131;-74
2022/05/01 06:32:21;;;;;;;13.52;12.25;;;;;;;;;;5018983;28;93269;-74
2022/05/01 06:34:50;;;;;;;15.98;12.05;;;;;;;;;;5017997;28;94438;-73
2022/05/01 06:37:16;;;;;;;14.45;12.93;;;;;;;;;;5019767;28;91593;-74
2022/05/01 06:39:43;;;;;;;13.95;11.68;;;;;;;;;;5019086;28;92286;-74
2022/05/01 06:42:10;;;;;;;14.13;12.60;;;;;;;;;;5019218;28;94068;-73
2022/05/01 06:44:36;;;;;;;13.98;12.57;;;;;;;;;;5020761;28;94659;-73
2022/05/01 06:47:04;;;;;;;14.18;12.88;;;;;;;;;;5018688;28;93797;-73
2022/05/01 06:49:30;;;;;;;15.48;13.90;;;;;;;;;;5016185;28;92231;-73
2022/05/01 06:51:57;;;;;;;14.52;13.00;;;;;;;;;;5018992;28;92915;-73
2022/05/01 06:54:23;;;;;;;14.55;12.95;;;;;;;;;;5018848;28;93049;-72
2022/05/01 06:56:49;;;;;;;14.23;11.98;;;;;;;;;;5019081;28;92361;-73
2022/05/01 06:59:17;;;;;;;13.57;12.27;;;;;;;;;;5000719;28;92732;-74
2022/05/01 07:01:43;;;;;;;14.77;12.25;;;;;;;;;;5019419;28;92897;-72
2022/05/01 07:04:10;;;;;;;14.52;13.10;;;;;;;;;;5021840;28;92164;-73
2022/05/01 07:06:36;;;;;;;13.52;12.18;;;;;;;;;;5018738;28;93591;-73
2022/05/01 07:09:03;;;;;;;14.30;12.88;;;;;;;;;;4983324;28;94753;-74
2022/05/01 07:11:29;;;;;;;14.52;12.68;;;;;;;;;;5018599;28;95800;-73
2022/05/01 07:13:56;;;;;;;13.95;12.30;;;;;;;;;;5015244;28;94132;-74
2022/05/01 07:16:22;;;;;;;15.80;12.20;;;;;;;;;;5017433;28;92182;-73
2022/05/01 07:18:49;;;;;;;12.75;11.38;;;;;;;;;;5018711;28;93712;-73
2022/05/01 07:21:15;;;;;;;12.40;11.10;;;;;;;;;;5017372;28;95175;-73
2022/05/01 07:23:41;;;;;;;12.23;10.98;;;;;;;;;;5014381;28;98433;-74
2022/05/01 07:26:08;;;;;;;12.93;11.63;;;;;;;;;;5016817;28;99413;-74
2022/05/01 07:28:34;;;;;;;11.70;10.63;;;;;;;;;;5014197;28;98379;-73
2022/05/01 07:31:02;;;;;;;12.20;11.07;;;;;;;;;;5014436;28;99551;-73
2022/05/01 07:33:29;;;;;;;11.98;10.60;;;;;;;;;;5013491;28;100236;-73
2022/05/01 07:35:57;;;;;;;12.25;10.40;;;;;;;;;;5014515;28;98290;-74
2022/05/01 07:38:24;;;;;;;13.75;11.10;;;;;;;;;;5004290;28;98993;-74
2022/05/01 07:40:57;;;;;;;10.80;9.75;;;;;;;;;;5000390;28;100041;-73
2022/05/01 07:43:24;;;;;;;12.05;10.30;;;;;;;;;;5001225;28;98439;-73
2022/05/01 07:45:50;;;;;;;10.90;9.52;;;;;;;;;;5003024;28;99807;-74
2022/05/01 07:48:16;;;;;;;15.60;10.07;;;;;;;;;;5006666;28;99141;-73
2022/05/01 07:50:43;;;;;;;10.05;9.10;;;;;;;;;;5004829;28;99493;-74
2022/05/01 07:53:09;;;;;;;13.40;9.05;;;;;;;;;;4999361;28;100730;-73
2022/05/01 07:55:35;;;;;;;14.32;9.77;;;;;;;;;;5006053;28;98401;-74
2022/05/01 07:58:02;;;;;;;10.63;9.60;;;;;;;;;;5001946;28;100011;-74
2022/05/01 08:00:28;;;;;;;10.23;9.30;;;;;;;;;;4985827;28;101131;-75
2022/05/01 08:05:40;;;;;;;10.35;9.18;;;;;;;;;;4998332;28;99423;-74
2022/05/01 08:08:06;;;;;;;9.75;8.85;;;;;;;;;;5005328;28;99700;-73
2022/05/01 08:10:33;;;;;;;11.48;9.13;;;;;;;;;;5005817;28;98517;-73
2022/05/01 08:12:59;;;;;;;13.02;9.50;;;;;;;;;;5003330;28;99625;-74
2022/05/01 08:15:26;;;;;;;10.50;9.48;;;;;;;;;;5003964;28;98023;-74
2022/05/01 08:17:52;;;;;;;11.07;9.95;;;;;;;;;;4998347;28;98647;-76
2022/05/01 08:23:08;;;;;;;13.95;9.30;;;;;;;;;;5001107;28;99184;-75
2022/05/01 08:25:34;;;;;;;10.63;9.30;;;;;;;;;;5004240;28;99902;-75
2022/05/01 08:28:02;;;;;;;10.73;9.63;;;;;;;;;;5003130;28;99626;-75
2022/05/01 08:30:29;;;;;;;13.25;8.65;;;;;;;;;;5002862;28;98459;-75
2022/05/01 08:32:56;;;;;;;9.55;8.60;;;;;;;;;;5003630;28;99609;-74
2022/05/01 08:35:23;;;;;;;9.98;8.98;;;;;;;;;;5004734;28;98422;-78
2022/05/01 08:37:49;;;;;;;9.02;8.15;;;;;;;;;;5002001;28;98879;-78
2022/05/01 08:40:16;;;;;;;8.10;7.32;;;;;;;;;;5005015;28;98545;-78
2022/05/01 08:42:43;;;;;;;10.70;8.35;;;;;;;;;;4997990;28;99298;-77
2022/05/01 08:45:12;;;;;;;11.35;7.78;;;;;;;;;;5003516;28;98701;-77
2022/05/01 08:47:50;;;;;;;10.50;7.82;;;;;;;;;;5002146;28;99976;-78
2022/05/01 08:50:17;;;;;;;8.32;7.57;;;;;;;;;;4987200;28;98589;-77
2022/05/01 08:52:45;;;;;;;8.15;7.45;;;;;;;;;;5003805;28;99694;-77
2022/05/01 08:55:12;;;;;;;7.18;6.60;;;;;;;;;;5005450;28;99907;-76
2022/05/01 08:57:39;;;;;;;7.70;7.10;;;;;;;;;;5001303;28;102150;-78
2022/05/01 09:00:07;;;;;;;8.05;7.20;;;;;;;;;;5003427;28;99739;-77
2022/05/01 09:02:34;;;;;;;7.95;7.25;;;;;;;;;;4998857;28;98562;-77
2022/05/01 09:05:01;;;;;;;7.80;7.10;;;;;;;;;;5005120;28;98786;-77
2022/05/01 09:07:27;;;;;;;8.02;7.43;;;;;;;;;;5001346;28;99617;-77
2022/05/01 09:09:53;;;;;;;8.60;7.50;;;;;;;;;;5001081;28;98475;-77
2022/05/01 09:15:06;;;;;;;7.65;7.03;;;;;;;;;;5002797;28;101145;-78
2022/05/01 09:17:32;;;;;;;7.70;7.00;;;;;;;;;;5004631;28;101129;-76
2022/05/01 09:20:06;;;;;;;8.77;6.50;;;;;;;;;;5004214;28;98986;-76
2022/05/01 09:22:50;;;;;;;9.45;6.60;;;;;;;;;;4971048;28;99428;-79
2022/05/01 09:25:22;;;;;;;6.82;6.10;;;;;;;;;;4999485;28;100583;-77
2022/05/01 09:27:52;;;;;;;7.05;5.95;;;;;;;;;;5000129;28;99180;-76
2022/05/01 09:30:22;;;;;;;8.60;5.40;;;;;;;;;;5003385;28;97626;-74
2022/05/01 09:32:49;;;;;;;6.75;5.18;;;;;;;;;;5002625;28;98377;-75
2022/05/01 09:35:25;;;;;;;5.53;4.78;;;;;;;;;;5002894;28;99929;-75
2022/05/01 09:38:10;;;;;;;5.78;5.28;;;;;;;;;;5004846;28;99191;-76
2022/05/01 09:40:37;;;;;;;4.68;4.38;;;;;;;;;;4996628;28;100608;-74
2022/05/01 09:43:03;;;;;;;4.53;4.15;;;;;;;;;;5004093;28;98514;-75
2022/05/01 09:45:32;;;;;;;5.70;5.18;;;;;;;;;;4998351;28;99270;-77
2022/05/01 09:48:34;;;;;;;6.72;5.55;;;;;;;;;;4999861;28;100282;-75
2022/05/01 09:51:12;;;;;;;5.00;4.60;;;;;;;;;;5001895;28;98340;-76
2022/05/01 09:53:45;;;;;;;5.63;5.07;;;;;;;;;;5001324;28;99980;-78
2022/05/01 09:56:11;;;;;;;486.10;411.73;;;;;;;;;;4979040;28;99564;-76
2022/05/01 09:58:40;;;;;;;13.63;7.65;;;;;;;;;;4999374;28;98534;-75
2022/05/01 10:01:11;;;;;;;6.10;5.65;;;;;;;;;;5006700;28;98992;-77
2022/05/01 10:03:41;;;;;;;4.28;3.95;;;;;;;;;;4998986;28;99242;-77
2022/05/01 10:06:10;;;;;;;5.80;4.47;;;;;;;;;;4998276;28;100252;-77
2022/05/01 10:08:37;;;;;;;4.80;4.40;;;;;;;;;;5002418;28;99582;-77
2022/05/01 10:11:05;;;;;;;5.93;4.65;;;;;;;;;;5000759;28;99431;-76
2022/05/01 10:13:32;;;;;;;4.95;4.65;;;;;;;;;;4981194;28;99415;-76
2022/05/01 10:16:06;;;;;;;6.68;5.93;;;;;;;;;;5000044;28;99613;-77
2022/05/01 10:18:32;;;;;;;8.25;6.35;;;;;;;;;;4984119;28;98513;-76
2022/05/01 10:20:59;;;;;;;6.78;5.70;;;;;;;;;;5002466;28;99770;-71
2022/05/01 10:23:26;;;;;;;6.10;5.57;;;;;;;;;;4980848;28;101377;-73
2022/05/01 10:26:09;;;;;;;6.00;5.50;;;;;;;;;;4999954;28;99307;-75
2022/05/01 10:29:02;;;;;;;6.78;6.25;;;;;;;;;;4996222;28;100205;-74
2022/05/01 10:34:32;;;;;;;6.57;6.03;;;;;;;;;;5002105;28;99396;-74
2022/05/01 10:36:58;;;;;;;6.53;5.95;;;;;;;;;;4996823;28;99605;-75
2022/05/01 10:39:33;;;;;;;6.35;5.47;;;;;;;;;;5003709;28;98420;-75
2022/05/01 10:42:00;;;;;;;5.97;5.47;;;;;;;;;;4996852;28;99465;-74
2022/05/01 10:44:27;;;;;;;6.00;5.50;;;;;;;;;;4998197;28;99918;-76
2022/05/01 10:46:58;;;;;;;6.72;6.03;;;;;;;;;;5006774;28;97685;-77
2022/05/01 10:49:34;;;;;;;7.22;6.47;;;;;;;;;;4995670;28;101206;-76
2022/05/01 10:52:28;;;;;;;6.40;5.85;;;;;;;;;;4999676;28;98418;-79
2022/05/01 10:55:05;;;;;;;7.55;6.45;;;;;;;;;;5001702;28;99570;-75
2022/05/01 10:57:31;;;;;;;6.15;5.70;;;;;;;;;;4999153;28;99152;-74
2022/05/01 11:00:10;;;;;;;7.32;5.85;;;;;;;;;;5003821;28;98573;-73
2022/05/01 11:02:38;;;;;;;6.07;5.47;;;;;;;;;;4982267;28;99322;-74
2022/05/01 11:05:07;;;;;;;6.18;5.57;;;;;;;;;;5003287;28;99642;-74
2022/05/01 11:07:37;;;;;;;6.30;5.72;;;;;;;;;;4996762;28;98453;-74
2022/05/01 11:10:05;;;;;;;6.35;5.47;;;;;;;;;;5006225;28;99497;-74
2022/05/01 11:12:33;;;;;;;6.10;5.60;;;;;;;;;;5005655;28;97755;-75
2022/05/01 11:15:00;;;;;;;5.72;5.30;;;;;;;;;;4985734;28;98808;-74
2022/05/01 11:17:42;;;;;;;5.95;5.40;;;;;;;;;;4987253;28;99654;-75
2022/05/01 11:20:09;;;;;;;;;;;;;;;;;;4999503;28;99059;-74
2022/05/01 11:22:35;;;;;;;5.85;5.45;;;;;;;;;;5006346;28;114683;-76
2022/05/01 11:25:02;;;;;;;5.70;5.18;;;;;;;;;;5002660;28;99109;-74
2022/05/01 11:27:45;;;;;;;6.07;5.57;;;;;;;;;;5001634;28;98417;-74
2022/05/01 11:30:22;;;;;;;6.10;5.50;;;;;;;;;;5001990;28;99373;-76
2022/05/01 11:32:59;;;;;;;5.85;5.40;;;;;;;;;;5000397;28;98460;-74
2022/05/01 11:35:55;;;;;;;6.28;5.70;;;;;;;;;;5004805;28;99361;-74
2022/05/01 11:38:45;;;;;;;5.50;5.10;;;;;;;;;;4989043;28;98473;-73
2022/05/01 11:41:11;;;;;;;6.65;5.70;;;;;;;;;;4995146;28;98530;-74
2022/05/01 11:43:45;;;;;;;6.35;5.75;;;;;;;;;;4998721;28;99609;-74
2022/05/01 11:46:17;;;;;;;5.93;5.35;;;;;;;;;;5004554;28;100364;-74
2022/05/01 11:48:44;;;;;;;5.93;5.50;;;;;;;;;;4998319;28;98533;-73
2022/05/01 11:51:11;;;;;;;6.15;5.60;;;;;;;;;;5005374;28;99571;-74
2022/05/01 11:53:38;;;;;;;5.88;5.28;;;;;;;;;;5006048;28;99637;-74
2022/05/01 12:04:31;;;;;;;5.90;5.50;;;;;;;;;;4996570;28;100390;-74
2022/05/01 12:07:02;;;;;;;6.07;5.57;;;;;;;;;;5004598;28;101670;-75
2022/05/01 12:09:29;;;;;;;6.20;5.70;;;;;;;;;;5001997;28;98420;-75
2022/05/01 12:11:56;;;;;;;5.40;4.90;;;;;;;;;;5005411;28;100222;-74
2022/05/01 12:14:23;;;;;;;5.10;4.75;;;;;;;;;;4997216;28;99811;-75
2022/05/01 12:16:49;;;;;;;10.48;4.97;;;;;;;;;;5005484;28;98537;-75
2022/05/01 12:19:16;;;;;;;6.80;5.50;;;;;;;;;;5003857;28;99004;-75
2022/05/01 12:21:42;;;;;;;6.85;5.55;;;;;;;;;;5003524;28;98304;-74
2022/05/01 12:24:10;;;;;;;6.13;5.55;;;;;;;;;;5006074;28;99550;-75
2022/05/01 12:26:38;;;;;;;6.07;5.68;;;;;;;;;;5014123;28;99578;-75
2022/05/01 12:29:08;;;;;;;5.88;5.32;;;;;;;;;;5013942;28;97767;-75
2022/05/01 12:31:53;;;;;;;6.28;5.65;;;;;;;;;;5013912;28;99765;-75
2022/05/01 12:34:23;;;;;;;5.72;5.28;;;;;;;;;;5013429;28;99692;-76
2022/05/01 12:36:54;;;;;;;5.70;5.30;;;;;;;;;;5013892;28;99184;-76
2022/05/01 12:39:22;;;;;;;6.07;5.57;;;;;;;;;;5017231;28;100048;-75
2022/05/01 12:45:10;;;;;;;6.72;6.07;;;;;;;;;;5013760;28;99508;-75
2022/05/01 12:47:40;;;;;;;6.40;5.90;;;;;;;;;;5013621;28;99725;-75
2022/05/01 12:50:08;;;;;;;7.00;6.40;;;;;;;;;;5013932;28;98528;-75
2022/05/01 12:52:35;;;;;;;6.30;5.80;;;;;;;;;;5013849;28;99379;-76
2022/05/01 12:55:18;;;;;;;5.93;5.38;;;;;;;;;;5014093;28;99215;-76
2022/05/01 12:57:51;;;;;;;5.97;5.47;;;;;;;;;;5013743;28;98329;-76
2022/05/01 13:00:38;;;;;;;5.88;5.38;;;;;;;;;;4981565;28;99434;-75
2022/05/01 13:03:16;;;;;;;6.50;5.90;;;;;;;;;;5002920;28;101326;-75
2022/05/01 13:05:53;;;;;;;6.65;6.05;;;;;;;;;;5001572;28;100582;-75
2022/05/01 13:08:20;;;;;;;5.60;5.20;;;;;;;;;;5003147;28;99611;-76
2022/05/01 13:11:06;;;;;;;6.15;5.47;;;;;;;;;;5001911;28;99971;-76
2022/05/01 13:13:45;;;;;;;6.25;5.75;;;;;;;;;;4988686;28;101091;-75
2022/05/01 13:16:13;;;;;;;7.25;5.90;;;;;;;;;;5002474;28;100676;-75
2022/05/01 13:18:40;;;;;;;6.03;5.60;;;;;;;;;;5002800;28;99186;-75
2022/05/01 13:21:06;;;;;;;5.78;5.38;;;;;;;;;;5004308;28;99439;-74
2022/05/01 13:23:32;;;;;;;6.60;5.97;;;;;;;;;;5001004;28;100067;-75
2022/05/01 13:26:01;;;;;;;6.65;5.80;;;;;;;;;;4989882;28;98364;-74
2022/05/01 13:28:29;;;;;;;8.68;6.75;;;;;;;;;;5000087;28;100911;-74
2022/05/01 13:30:56;;;;;;;7.88;6.30;;;;;;;;;;5001847;28;98596;-75
2022/05/01 13:33:26;;;;;;;7.47;6.70;;;;;;;;;;5004481;28;99307;-74
2022/05/01 13:35:52;;;;;;;8.18;6.38;;;;;;;;;;5001157;28;99676;-75
2022/05/01 13:38:18;;;;;;;6.45;5.85;;;;;;;;;;4980928;28;98368;-75
2022/05/01 13:46:15;;;;;;;7.20;6.60;;;;;;;;;;5003038;28;97824;-77
2022/05/01 13:48:45;;;;;;;6.47;5.97;;;;;;;;;;4999021;28;98962;-78
2022/05/01 13:51:12;;;;;;;6.43;5.82;;;;;;;;;;5001455;28;98379;-79
2022/05/01 13:53:39;;;;;;;6.65;6.05;;;;;;;;;;5003972;28;99068;-79
2022/05/01 13:56:05;;;;;;;6.38;5.97;;;;;;;;;;4999823;28;99364;-77
2022/05/01 13:58:31;;;;;;;6.72;5.97;;;;;;;;;;5000684;28;98443;-77
2022/05/01 14:00:59;;;;;;;6.50;6.05;;;;;;;;;;5002464;28;98693;-77
2022/05/01 14:03:25;;;;;;;6.00;5.60;;;;;;;;;;5001971;28;100845;-77
2022/05/01 14:05:53;;;;;;;6.63;5.93;;;;;;;;;;5002023;28;98364;-76
2022/05/01 14:08:19;;;;;;;6.00;5.45;;;;;;;;;;5005893;28;99038;-78
2022/05/01 14:10:46;;;;;;;8.63;6.15;;;;;;;;;;4983163;28;97829;-77
2022/05/01 14:13:12;;;;;;;7.55;6.78;;;;;;;;;;5003960;28;98666;-76
2022/05/01 14:15:39;;;;;;;6.90;6.32;;;;;;;;;;5000003;28;99576;-76
2022/05/01 14:18:06;;;;;;;6.68;6.18;;;;;;;;;;5002763;28;99511;-73
2022/05/01 14:20:32;;;;;;;6.40;5.82;;;;;;;;;;5002276;28;100226;-76
2022/05/01 14:22:59;;;;;;;7.03;6.32;;;;;;;;;;5000724;28;99715;-75
2022/05/01 14:25:25;;;;;;;7.07;6.38;;;;;;;;;;5000890;28;98487;-72
2022/05/01 14:27:52;;;;;;;6.47;5.90;;;;;;;;;;4999763;28;99781;-73
2022/05/01 14:30:18;;;;;;;6.47;5.93;;;;;;;;;;5009320;28;99829;-74
2022/05/01 14:32:46;;;;;;;5.80;5.30;;;;;;;;;;5001612;28;100357;-75
2022/05/01 14:35:16;;;;;;;6.03;5.60;;;;;;;;;;5006696;28;98719;-74
2022/05/01 14:38:03;;;;;;;10.70;5.70;;;;;;;;;;5003396;28;98526;-74
2022/05/01 14:40:30;;;;;;;6.32;5.78;;;;;;;;;;5001448;28;99421;-75
2022/05/01 14:43:05;;;;;;;8.57;5.57;;;;;;;;;;5005645;28;102158;-81
2022/05/01 14:45:31;;;;;;;5.53;5.13;;;;;;;;;;5004764;28;98463;-75
2022/05/01 14:48:14;;;;;;;11.88;5.85;;;;;;;;;;5006800;28;99391;-75
2022/05/01 14:50:43;;;;;;;6.50;5.97;;;;;;;;;;4986985;28;100890;-75
2022/05/01 14:53:10;;;;;;;6.28;5.65;;;;;;;;;;5008767;28;98513;-74
2022/05/01 14:55:37;;;;;;;6.53;5.45;;;;;;;;;;5004031;28;99995;-77
2022/05/01 15:06:16;;;;;;;7.15;6.45;;;;;;;;;;5005743;28;99108;-78
2022/05/01 15:06:25;;;;;;;5.88;5.38;;;;;;;;;;5003733;28;98408;-75
2022/05/01 15:08:52;;;;;;;5.45;5.03;;;;;;;;;;5005191;28;99586;-74
2022/05/01 15:11:18;;;;;;;6.47;5.88;;;;;;;;;;5003353;28;99694;-75
2022/05/01 15:13:45;;;;;;;6.10;5.50;;;;;;;;;;5003440;28;98384;-78
2022/05/01 15:16:20;;;;;;;5.68;5.28;;;;;;;;;;5008537;28;98918;-76
2022/05/01 15:19:08;;;;;;;7.47;5.68;;;;;;;;;;5003940;28;98489;-76
2022/05/01 15:24:38;;;;;;;5.95;5.55;;;;;;;;;;4998406;28;99584;-75
2022/05/01 15:27:06;;;;;;;6.10;5.18;;;;;;;;;;4999831;28;97585;-76
2022/05/01 15:29:46;;;;;;;;;;;;;;;;;;;;;